KPWK/PWK METAR and TAF weather

Enter ICAO airport designator
Station Type Date Time Source
KPWK METAR 2021/03/01 09:52 UTC NOAA

KPWK 010952Z AUTO 29007KT 10SM CLR M02/M06 A3007 RMK AO2 SLP186 T10171056 $


Station Type Date Time Source
KPWK Decoded METAR 2021/03/01 09:52 UTC NOAA

CHICAGO EXECUTIVE AIRPORT, IL, United States (KPWK) 42-07N 087-54W 203M
Mar 01, 2021 - 04:52 AM EST / 2021.03.01 0952 UTC
Wind: from the WNW (290 degrees) at 8 MPH (7 KT):0
Visibility: 10 mile(s):0
Sky conditions: clear
Temperature: 28.9 F (-1.7 C)
Windchill: 21 F (-6 C):1
Dew Point: 21.9 F (-5.6 C)
Relative Humidity: 74%
Pressure (altimeter): 30.07 in. Hg (1018 hPa)
ob: KPWK 010952Z AUTO 29007KT 10SM CLR M02/M06 A3007 RMK AO2 SLP186 T10171056
cycle: 10

Station Type Date Time Source
KPWK TAF UTC NOAA

Error!

Example: see airport list